Terminal Aerodrome Forecast
Issued by NWS

Home | Current Version | Previous Version | Text Only | Print | Product List | Glossary Off
Versions: 1 2 3 4 5 6 7 8 9 10 11 12 13 14 15 16 17 18 19 20 21 22 23 24 25 26 27 28

000
FTUS43 KDLH 042103 AAA
TAFHIB
TAF AMD
KHIB 042103Z 0421/0518 14009KT 6SM HZ FU SKC
     FM050700 16003KT 6SM HZ FU SCT250 WS015/22045KT
     FM051400 17005KT P6SM SCT250
     FM051700 19007G15KT P6SM SCT250=

USA.gov is the U.S. government's official web portal to all federal, state and local government web resources and services.